sensor_id;sensor_type;location;lat;lon;timestamp;pressure;altitude;pressure_sealevel;temperature;humidity
2036;BME280;23642;42.658;23.350;2023-03-16T00:02:21;47080.59;;;-146.31;99.81
2036;BME280;23642;42.658;23.350;2023-03-16T00:04:49;47140.34;;;-146.31;100.00
2036;BME280;23642;42.658;23.350;2023-03-16T00:07:16;47090.88;;;-146.31;100.00
2036;BME280;23642;42.658;23.350;2023-03-16T00:09:43;47074.41;;;-146.31;99.69
2036;BME280;23642;42.658;23.350;2023-03-16T00:12:12;47076.47;;;-146.31;100.00
2036;BME280;23642;42.658;23.350;2023-03-16T00:14:40;47113.56;;;-146.31;99.91
2036;BME280;23642;42.658;23.350;2023-03-16T00:17:10;47150.63;;;-146.31;99.55
2036;BME280;23642;42.658;23.350;2023-03-16T00:19:45;47132.09;;;-146.31;100.00
2036;BME280;23642;42.658;23.350;2023-03-16T00:22:13;47097.06;;;-146.31;99.96
2036;BME280;23642;42.658;23.350;2023-03-16T00:24:41;47000.25;;;-146.31;100.00
2036;BME280;23642;42.658;23.350;2023-03-16T00:27:09;46959.03;;;-146.31;100.00
2036;BME280;23642;42.658;23.350;2023-03-16T00:29:40;46919.88;;;-146.31;99.96
2036;BME280;23642;42.658;23.350;2023-03-16T00:32:12;46965.22;;;-146.31;99.88
2036;BME280;23642;42.658;23.350;2023-03-16T00:34:41;46944.59;;;-146.31;100.00
2036;BME280;23642;42.658;23.350;2023-03-16T00:37:10;46928.13;;;-146.31;99.91
2036;BME280;23642;42.658;23.350;2023-03-16T00:39:38;46936.38;;;-146.31;100.00
2036;BME280;23642;42.658;23.350;2023-03-16T00:42:06;46858.06;;;-146.31;100.00
2036;BME280;23642;42.658;23.350;2023-03-16T00:44:34;46825.13;;;-146.31;100.00
2036;BME280;23642;42.658;23.350;2023-03-16T00:47:01;46759.19;;;-146.31;100.00
2036;BME280;23642;42.658;23.350;2023-03-16T00:49:28;46709.75;;;-146.31;100.00
2036;BME280;23642;42.658;23.350;2023-03-16T00:51:59;46639.72;;;-146.31;100.00
2036;BME280;23642;42.658;23.350;2023-03-16T00:54:27;46623.22;;;-146.31;100.00
2036;BME280;23642;42.658;23.350;2023-03-16T00:56:54;46590.25;;;-146.31;100.00
2036;BME280;23642;42.658;23.350;2023-03-16T00:59:22;46602.63;;;-146.31;100.00
2036;BME280;23642;42.658;23.350;2023-03-16T01:01:50;46590.25;;;-146.31;100.00
2036;BME280;23642;42.658;23.350;2023-03-16T01:04:18;46604.69;;;-146.31;100.00
2036;BME280;23642;42.658;23.350;2023-03-16T01:06:45;46600.56;;;-146.31;100.00
2036;BME280;23642;42.658;23.350;2023-03-16T01:09:12;46647.94;;;-146.31;100.00
2036;BME280;23642;42.658;23.350;2023-03-16T01:11:40;46703.56;;;-146.31;100.00
2036;BME280;23642;42.658;23.350;2023-03-16T01:14:08;46631.47;;;-146.31;100.00
2036;BME280;23642;42.658;23.350;2023-03-16T01:16:35;46619.09;;;-146.31;100.00
2036;BME280;23642;42.658;23.350;2023-03-16T01:19:02;46493.44;;;-146.31;100.00
2036;BME280;23642;42.658;23.350;2023-03-16T01:21:31;46336.88;;;-146.31;100.00
2036;BME280;23642;42.658;23.350;2023-03-16T01:23:58;46186.53;;;-146.31;100.00
2036;BME280;23642;42.658;23.350;2023-03-16T01:26:25;45978.50;;;-146.31;100.00
2036;BME280;23642;42.658;23.350;2023-03-16T01:28:53;45811.66;;;-146.31;100.00
2036;BME280;23642;42.658;23.350;2023-03-16T01:31:21;45683.97;;;-146.31;100.00
2036;BME280;23642;42.658;23.350;2023-03-16T01:33:47;45607.75;;;-146.31;100.00
2036;BME280;23642;42.658;23.350;2023-03-16T01:36:16;45543.94;;;-146.31;100.00
2036;BME280;23642;42.658;23.350;2023-03-16T01:38:43;45502.75;;;-146.31;100.00
2036;BME280;23642;42.658;23.350;2023-03-16T01:41:11;45443.00;;;-146.31;100.00
2036;BME280;23642;42.658;23.350;2023-03-16T01:43:39;45473.91;;;-146.31;100.00
2036;BME280;23642;42.658;23.350;2023-03-16T01:46:17;45496.56;;;-146.31;100.00
2036;BME280;23642;42.658;23.350;2023-03-16T01:48:50;45537.75;;;-146.31;100.00
2036;BME280;23642;42.658;23.350;2023-03-16T01:51:23;45543.94;;;-146.31;100.00
2036;BME280;23642;42.658;23.350;2023-03-16T01:53:55;45568.63;;;-146.31;100.00
2036;BME280;23642;42.658;23.350;2023-03-16T01:56:25;45609.81;;;-146.31;100.00
2036;BME280;23642;42.658;23.350;2023-03-16T01:58:54;45659.25;;;-146.31;100.00
2036;BME280;23642;42.658;23.350;2023-03-16T02:01:25;45772.53;;;-146.31;100.00
2036;BME280;23642;42.658;23.350;2023-03-16T02:03:57;45889.91;;;-146.31;100.00
2036;BME280;23642;42.658;23.350;2023-03-16T02:06:28;45992.91;;;-146.31;100.00
2036;BME280;23642;42.658;23.350;2023-03-16T02:08:56;46046.47;;;-146.31;100.00
2036;BME280;23642;42.658;23.350;2023-03-16T02:11:25;46038.22;;;-146.31;100.00
2036;BME280;23642;42.658;23.350;2023-03-16T02:13:51;46029.97;;;-146.31;100.00
2036;BME280;23642;42.658;23.350;2023-03-16T02:16:19;46005.25;;;-146.31;100.00
2036;BME280;23642;42.658;23.350;2023-03-16T02:18:49;46001.16;;;-146.31;100.00
2036;BME280;23642;42.658;23.350;2023-03-16T02:21:20;45994.97;;;-146.31;100.00
2036;BME280;23642;42.658;23.350;2023-03-16T02:23:53;45939.34;;;-146.31;100.00
2036;BME280;23642;42.658;23.350;2023-03-16T02:26:25;45949.66;;;-146.31;100.00
2036;BME280;23642;42.658;23.350;2023-03-16T02:29:05;45889.91;;;-146.31;100.00
2036;BME280;23642;42.658;23.350;2023-03-16T02:31:38;45811.66;;;-146.31;100.00
2036;BME280;23642;42.658;23.350;2023-03-16T02:34:05;45729.28;;;-146.31;100.00
2036;BME280;23642;42.658;23.350;2023-03-16T02:36:33;45655.13;;;-146.31;100.00
2036;BME280;23642;42.658;23.350;2023-03-16T02:39:02;45630.41;;;-146.31;100.00
2036;BME280;23642;42.658;23.350;2023-03-16T02:41:30;45554.22;;;-146.31;100.00
2036;BME280;23642;42.658;23.350;2023-03-16T02:44:00;45428.59;;;-146.31;100.00
2036;BME280;23642;42.658;23.350;2023-03-16T02:46:29;45379.19;;;-146.31;100.00
2036;BME280;23642;42.658;23.350;2023-03-16T02:49:05;45315.34;;;-146.31;100.00
2036;BME280;23642;42.658;23.350;2023-03-16T02:51:33;45218.56;;;-146.31;100.00
2036;BME280;23642;42.658;23.350;2023-03-16T02:54:00;45103.25;;;-146.31;100.00
2036;BME280;23642;42.658;23.350;2023-03-16T02:56:27;44946.75;;;-146.31;100.00
2036;BME280;23642;42.658;23.350;2023-03-16T02:58:53;44800.56;;;-146.31;100.00
2036;BME280;23642;42.658;23.350;2023-03-16T03:01:21;44740.84;;;-146.31;100.00
2036;BME280;23642;42.658;23.350;2023-03-16T03:03:48;44611.16;;;-146.31;100.00
2036;BME280;23642;42.658;23.350;2023-03-16T03:06:17;44543.19;;;-146.31;100.00
2036;BME280;23642;42.658;23.350;2023-03-16T03:08:43;44458.78;;;-146.31;100.00
2036;BME280;23642;42.658;23.350;2023-03-16T03:11:10;44436.16;;;-146.31;100.00
2036;BME280;23642;42.658;23.350;2023-03-16T03:13:37;44366.16;;;-146.31;100.00
2036;BME280;23642;42.658;23.350;2023-03-16T03:16:04;44419.69;;;-146.31;100.00
2036;BME280;23642;42.658;23.350;2023-03-16T03:18:31;44427.91;;;-146.31;100.00
2036;BME280;23642;42.658;23.350;2023-03-16T03:20:59;44448.50;;;-146.31;100.00
2036;BME280;23642;42.658;23.350;2023-03-16T03:23:29;44419.69;;;-146.31;100.00
2036;BME280;23642;42.658;23.350;2023-03-16T03:25:56;44432.03;;;-146.31;100.00
2036;BME280;23642;42.658;23.350;2023-03-16T03:28:23;44413.50;;;-146.31;100.00
2036;BME280;23642;42.658;23.350;2023-03-16T03:30:50;44415.56;;;-146.31;100.00
2036;BME280;23642;42.658;23.350;2023-03-16T03:33:17;44454.69;;;-146.31;100.00
2036;BME280;23642;42.658;23.350;2023-03-16T03:35:46;44483.50;;;-146.31;100.00
2036;BME280;23642;42.658;23.350;2023-03-16T03:38:13;44609.09;;;-146.31;100.00
2036;BME280;23642;42.658;23.350;2023-03-16T03:40:41;44814.97;;;-146.31;100.00
2036;BME280;23642;42.658;23.350;2023-03-16T03:43:08;44852.03;;;-146.31;100.00
2036;BME280;23642;42.658;23.350;2023-03-16T03:45:35;44823.22;;;-146.31;100.00
2036;BME280;23642;42.658;23.350;2023-03-16T03:48:02;44810.84;;;-146.31;100.00
2036;BME280;23642;42.658;23.350;2023-03-16T03:50:29;44827.31;;;-146.31;100.00
2036;BME280;23642;42.658;23.350;2023-03-16T03:52:56;44845.84;;;-146.31;100.00
2036;BME280;23642;42.658;23.350;2023-03-16T03:55:23;44860.28;;;-146.31;100.00
2036;BME280;23642;42.658;23.350;2023-03-16T03:57:51;44942.63;;;-146.31;100.00
2036;BME280;23642;42.658;23.350;2023-03-16T04:00:19;44996.16;;;-146.31;100.00
2036;BME280;23642;42.658;23.350;2023-03-16T04:02:48;45119.72;;;-146.31;100.00
2036;BME280;23642;42.658;23.350;2023-03-16T04:05:16;45187.66;;;-146.31;100.00
2036;BME280;23642;42.658;23.350;2023-03-16T04:07:42;45278.28;;;-146.31;100.00
2036;BME280;23642;42.658;23.350;2023-03-16T04:10:10;45368.88;;;-146.31;100.00
2036;BME280;23642;42.658;23.350;2023-03-16T04:12:37;45350.34;;;-146.31;100.00
2036;BME280;23642;42.658;23.350;2023-03-16T04:15:06;45294.75;;;-146.31;100.00
2036;BME280;23642;42.658;23.350;2023-03-16T04:17:33;45280.34;;;-146.31;100.00
2036;BME280;23642;42.658;23.350;2023-03-16T04:20:00;45239.16;;;-146.31;100.00
2036;BME280;23642;42.658;23.350;2023-03-16T04:22:30;45235.03;;;-146.31;100.00
2036;BME280;23642;42.658;23.350;2023-03-16T04:24:56;45206.19;;;-146.31;100.00
2036;BME280;23642;42.658;23.350;2023-03-16T04:27:23;45183.53;;;-146.31;100.00
2036;BME280;23642;42.658;23.350;2023-03-16T04:29:50;45101.19;;;-146.31;100.00
2036;BME280;23642;42.658;23.350;2023-03-16T04:32:21;45150.59;;;-146.31;100.00
2036;BME280;23642;42.658;23.350;2023-03-16T04:34:50;45206.19;;;-146.31;100.00
2036;BME280;23642;42.658;23.350;2023-03-16T04:37:20;45270.03;;;-146.31;100.00
2036;BME280;23642;42.658;23.350;2023-03-16T04:39:48;45385.34;;;-146.31;100.00
2036;BME280;23642;42.658;23.350;2023-03-16T04:42:15;45449.19;;;-146.31;100.00
2036;BME280;23642;42.658;23.350;2023-03-16T04:44:42;45492.44;;;-146.31;100.00
2036;BME280;23642;42.658;23.350;2023-03-16T04:47:09;45527.44;;;-146.31;100.00
2036;BME280;23642;42.658;23.350;2023-03-16T04:49:37;45500.69;;;-146.31;100.00
2036;BME280;23642;42.658;23.350;2023-03-16T04:52:05;45453.31;;;-146.31;100.00
2036;BME280;23642;42.658;23.350;2023-03-16T04:54:32;45513.03;;;-146.31;100.00
2036;BME280;23642;42.658;23.350;2023-03-16T04:56:59;45572.75;;;-146.31;100.00
2036;BME280;23642;42.658;23.350;2023-03-16T04:59:28;45519.22;;;-146.31;100.00
2036;BME280;23642;42.658;23.350;2023-03-16T05:01:54;45465.66;;;-146.31;100.00
2036;BME280;23642;42.658;23.350;2023-03-16T05:04:21;45410.06;;;-146.31;100.00
2036;BME280;23642;42.658;23.350;2023-03-16T05:06:50;45364.75;;;-146.31;100.00
2036;BME280;23642;42.658;23.350;2023-03-16T05:09:17;45449.19;;;-146.31;100.00
2036;BME280;23642;42.658;23.350;2023-03-16T05:11:45;45410.06;;;-146.31;100.00
2036;BME280;23642;42.658;23.350;2023-03-16T05:14:12;45539.81;;;-146.31;100.00
2036;BME280;23642;42.658;23.350;2023-03-16T05:16:39;45587.16;;;-146.31;100.00
2036;BME280;23642;42.658;23.350;2023-03-16T05:19:06;45624.25;;;-146.31;100.00
2036;BME280;23642;42.658;23.350;2023-03-16T05:21:33;45613.94;;;-146.31;100.00
2036;BME280;23642;42.658;23.350;2023-03-16T05:24:04;45628.34;;;-146.31;100.00
2036;BME280;23642;42.658;23.350;2023-03-16T05:26:30;45700.44;;;-146.31;100.00
2036;BME280;23642;42.658;23.350;2023-03-16T05:28:58;45745.75;;;-146.31;100.00
2036;BME280;23642;42.658;23.350;2023-03-16T05:31:25;45754.00;;;-146.31;100.00
2036;BME280;23642;42.658;23.350;2023-03-16T05:33:52;45824.00;;;-146.31;100.00
2036;BME280;23642;42.658;23.350;2023-03-16T05:36:19;45838.44;;;-146.31;100.00
2036;BME280;23642;42.658;23.350;2023-03-16T05:38:46;45844.59;;;-146.31;100.00
2036;BME280;23642;42.658;23.350;2023-03-16T05:41:14;45760.16;;;-146.31;100.00
2036;BME280;23642;42.658;23.350;2023-03-16T05:43:42;45723.09;;;-146.31;100.00
2036;BME280;23642;42.658;23.350;2023-03-16T05:46:09;45706.63;;;-146.31;100.00
2036;BME280;23642;42.658;23.350;2023-03-16T05:48:36;45758.09;;;-146.31;100.00
2036;BME280;23642;42.658;23.350;2023-03-16T05:51:03;45791.06;;;-146.31;100.00
2036;BME280;23642;42.658;23.350;2023-03-16T05:53:31;45910.53;;;-146.31;100.00
2036;BME280;23642;42.658;23.350;2023-03-16T05:55:57;45962.00;;;-146.31;100.00
2036;BME280;23642;42.658;23.350;2023-03-16T05:58:27;45978.50;;;-146.31;100.00
2036;BME280;23642;42.658;23.350;2023-03-16T06:00:54;45943.47;;;-146.31;100.00
2036;BME280;23642;42.658;23.350;2023-03-16T06:03:21;45873.44;;;-146.31;100.00
2036;BME280;23642;42.658;23.350;2023-03-16T06:05:48;45894.03;;;-146.31;100.00
2036;BME280;23642;42.658;23.350;2023-03-16T06:08:15;45908.47;;;-146.31;100.00
2036;BME280;23642;42.658;23.350;2023-03-16T06:10:41;45918.75;;;-146.31;100.00
2036;BME280;23642;42.658;23.350;2023-03-16T06:13:08;45980.53;;;-146.31;100.00
2036;BME280;23642;42.658;23.350;2023-03-16T06:15:37;46040.28;;;-146.31;100.00
2036;BME280;23642;42.658;23.350;2023-03-16T06:18:06;46050.56;;;-146.31;100.00
2036;BME280;23642;42.658;23.350;2023-03-16T06:20:35;46097.94;;;-146.31;100.00
2036;BME280;23642;42.658;23.350;2023-03-16T06:23:03;46194.75;;;-146.31;99.83
2036;BME280;23642;42.658;23.350;2023-03-16T06:25:30;46273.03;;;-146.31;99.17
2036;BME280;23642;42.658;23.350;2023-03-16T06:28:00;46419.28;;;-146.31;98.77
2036;BME280;23642;42.658;23.350;2023-03-16T06:30:26;46505.81;;;-146.31;98.67
2036;BME280;23642;42.658;23.350;2023-03-16T06:32:55;46561.41;;;-146.31;98.43
2036;BME280;23642;42.658;23.350;2023-03-16T06:35:26;46610.88;;;-146.31;97.89
2036;BME280;23642;42.658;23.350;2023-03-16T06:37:54;46693.25;;;-146.31;97.84
2036;BME280;23642;42.658;23.350;2023-03-16T06:40:23;46796.28;;;-146.31;96.91
2036;BME280;23642;42.658;23.350;2023-03-16T06:42:49;46876.63;;;-146.31;97.16
2036;BME280;23642;42.658;23.350;2023-03-16T06:45:27;46895.16;;;-146.31;96.84
2036;BME280;23642;42.658;23.350;2023-03-16T06:50:43;47101.19;;;-146.31;95.84
2036;BME280;23642;42.658;23.350;2023-03-16T06:53:10;47140.34;;;-146.31;95.79
2036;BME280;23642;42.658;23.350;2023-03-16T06:55:37;47257.78;;;-146.31;94.96
2036;BME280;23642;42.658;23.350;2023-03-16T06:58:04;47286.63;;;-146.31;95.26
2036;BME280;23642;42.658;23.350;2023-03-16T07:00:33;47422.63;;;-146.31;94.30
2036;BME280;23642;42.658;23.350;2023-03-16T07:03:05;47457.66;;;-146.31;93.78
2036;BME280;23642;42.658;23.350;2023-03-16T07:05:32;47573.03;;;-146.31;93.60
2036;BME280;23642;42.658;23.350;2023-03-16T07:07:58;47544.19;;;-146.31;93.84
2036;BME280;23642;42.658;23.350;2023-03-16T07:10:26;47612.19;;;-146.31;93.49
2036;BME280;23642;42.658;23.350;2023-03-16T07:12:53;47657.53;;;-146.31;93.36
2036;BME280;23642;42.658;23.350;2023-03-16T07:15:20;47622.50;;;-146.31;93.60
2036;BME280;23642;42.658;23.350;2023-03-16T07:17:50;47707.00;;;-146.31;93.79
2036;BME280;23642;42.658;23.350;2023-03-16T07:20:19;47766.75;;;-146.31;93.96
2036;BME280;23642;42.658;23.350;2023-03-16T07:22:46;47680.19;;;-146.31;94.40
2036;BME280;23642;42.658;23.350;2023-03-16T07:25:18;47665.78;;;-146.31;94.60
2036;BME280;23642;42.658;23.350;2023-03-16T07:28:24;47622.50;;;-146.31;95.05
2036;BME280;23642;42.658;23.350;2023-03-16T07:31:38;47533.91;;;-146.31;95.56
2036;BME280;23642;42.658;23.350;2023-03-16T07:34:05;47558.63;;;-146.31;95.91
2036;BME280;23642;42.658;23.350;2023-03-16T07:36:34;47554.50;;;-146.31;96.14
2036;BME280;23642;42.658;23.350;2023-03-16T07:39:00;47519.47;;;-146.31;95.66
2036;BME280;23642;42.658;23.350;2023-03-16T07:41:30;47622.50;;;-146.31;95.09
2036;BME280;23642;42.658;23.350;2023-03-16T07:43:57;47781.19;;;-146.31;94.53
2036;BME280;23642;42.658;23.350;2023-03-16T07:46:24;47826.50;;;-146.31;94.49
2036;BME280;23642;42.658;23.350;2023-03-16T07:48:50;47882.16;;;-146.31;93.56
2036;BME280;23642;42.658;23.350;2023-03-16T07:51:17;48156.25;;;-146.31;92.26
2036;BME280;23642;42.658;23.350;2023-03-16T07:53:46;48271.69;;;-146.31;91.87
2036;BME280;23642;42.658;23.350;2023-03-16T07:56:12;48296.41;;;-146.31;91.67
2036;BME280;23642;42.658;23.350;2023-03-16T07:58:39;48253.13;;;-146.31;91.85
2036;BME280;23642;42.658;23.350;2023-03-16T08:01:06;48401.53;;;-146.31;90.94
2036;BME280;23642;42.658;23.350;2023-03-16T08:03:33;48605.59;;;-146.31;90.33
2036;BME280;23642;42.658;23.350;2023-03-16T08:06:00;48778.75;;;-146.31;89.67
2036;BME280;23642;42.658;23.350;2023-03-16T08:08:27;48735.44;;;-146.31;90.44
2036;BME280;23642;42.658;23.350;2023-03-16T08:10:55;48679.78;;;-146.31;90.54
2036;BME280;23642;42.658;23.350;2023-03-16T08:13:22;48754.00;;;-146.31;89.61
2036;BME280;23642;42.658;23.350;2023-03-16T08:15:52;48906.53;;;-146.31;88.20
2036;BME280;23642;42.658;23.350;2023-03-16T08:18:23;48904.47;;;-146.31;89.09
2036;BME280;23642;42.658;23.350;2023-03-16T08:20:50;48916.84;;;-146.31;88.17
2036;BME280;23642;42.658;23.350;2023-03-16T08:23:17;48848.81;;;-146.31;89.67
2036;BME280;23642;42.658;23.350;2023-03-16T08:25:44;48801.41;;;-146.31;89.95
2036;BME280;23642;42.658;23.350;2023-03-16T08:28:13;48842.63;;;-146.31;89.52
2036;BME280;23642;42.658;23.350;2023-03-16T08:30:44;48840.56;;;-146.31;89.96
2036;BME280;23642;42.658;23.350;2023-03-16T08:33:11;48966.31;;;-146.31;89.97
2036;BME280;23642;42.658;23.350;2023-03-16T08:35:40;48958.09;;;-146.31;90.57
2036;BME280;23642;42.658;23.350;2023-03-16T08:38:08;49046.72;;;-146.31;90.05
2036;BME280;23642;42.658;23.350;2023-03-16T08:40:35;49036.41;;;-146.31;90.14
2036;BME280;23642;42.658;23.350;2023-03-16T08:43:02;49209.59;;;-146.31;88.34
2036;BME280;23642;42.658;23.350;2023-03-16T08:45:30;49632.25;;;-146.31;89.00
2036;BME280;23642;42.658;23.350;2023-03-16T08:47:58;49391.03;;;-146.31;88.40
2036;BME280;23642;42.658;23.350;2023-03-16T08:50:25;49250.81;;;-146.31;87.43
2036;BME280;23642;42.658;23.350;2023-03-16T08:52:52;49240.53;;;-146.31;86.06
2036;BME280;23642;42.658;23.350;2023-03-16T08:55:19;49370.41;;;-146.31;86.00
2036;BME280;23642;42.658;23.350;2023-03-16T08:57:46;49454.94;;;-146.31;86.66
2036;BME280;23642;42.658;23.350;2023-03-16T09:00:14;49457.00;;;-146.31;86.40
2036;BME280;23642;42.658;23.350;2023-03-16T09:02:43;49442.56;;;-146.31;86.12
2036;BME280;23642;42.658;23.350;2023-03-16T09:05:13;49496.16;;;-146.31;85.92
2036;BME280;23642;42.658;23.350;2023-03-16T09:07:42;49549.78;;;-146.31;86.39
2036;BME280;23642;42.658;23.350;2023-03-16T09:10:10;49533.28;;;-146.31;85.66
2036;BME280;23642;42.658;23.350;2023-03-16T09:12:40;49605.44;;;-146.31;86.13
2036;BME280;23642;42.658;23.350;2023-03-16T09:15:08;49566.28;;;-146.31;85.42
2036;BME280;23642;42.658;23.350;2023-03-16T09:17:36;49586.91;;;-146.31;85.79
2036;BME280;23642;42.658;23.350;2023-03-16T09:20:07;49469.38;;;-146.31;87.09
2036;BME280;23642;42.658;23.350;2023-03-16T09:22:35;49529.16;;;-146.31;87.37
2036;BME280;23642;42.658;23.350;2023-03-16T09:25:02;49574.53;;;-146.31;87.14
2036;BME280;23642;42.658;23.350;2023-03-16T09:27:31;49568.34;;;-146.31;87.08
2036;BME280;23642;42.658;23.350;2023-03-16T09:29:59;49473.50;;;-146.31;88.34
2036;BME280;23642;42.658;23.350;2023-03-16T09:32:27;49576.59;;;-146.31;87.29
2036;BME280;23642;42.658;23.350;2023-03-16T09:34:54;49566.28;;;-146.31;87.29
2036;BME280;23642;42.658;23.350;2023-03-16T09:37:23;49634.31;;;-146.31;86.17
2036;BME280;23642;42.658;23.350;2023-03-16T09:39:50;49710.59;;;-146.31;86.09
2036;BME280;23642;42.658;23.350;2023-03-16T09:42:22;49677.63;;;-146.31;86.30
2036;BME280;23642;42.658;23.350;2023-03-16T09:45:02;49739.47;;;-146.31;86.10
2036;BME280;23642;42.658;23.350;2023-03-16T09:47:33;49747.72;;;-146.31;86.46
2036;BME280;23642;42.658;23.350;2023-03-16T09:50:05;49722.97;;;-146.31;86.27
2036;BME280;23642;42.658;23.350;2023-03-16T09:52:40;49764.22;;;-146.31;85.57
2036;BME280;23642;42.658;23.350;2023-03-16T09:55:15;49801.34;;;-146.31;86.24
2036;BME280;23642;42.658;23.350;2023-03-16T09:57:49;49840.50;;;-146.31;85.74
2036;BME280;23642;42.658;23.350;2023-03-16T10:00:20;49840.50;;;-146.31;85.93
2036;BME280;23642;42.658;23.350;2023-03-16T10:03:19;49797.22;;;-146.31;86.70
2036;BME280;23642;42.658;23.350;2023-03-16T10:05:56;49704.41;;;-146.31;87.34
2036;BME280;23642;42.658;23.350;2023-03-16T10:08:30;49731.22;;;-146.31;87.05
2036;BME280;23642;42.658;23.350;2023-03-16T10:11:09;49714.72;;;-146.31;87.95
2036;BME280;23642;42.658;23.350;2023-03-16T10:13:47;49646.69;;;-146.31;88.04
2036;BME280;23642;42.658;23.350;2023-03-16T10:16:21;49665.25;;;-146.31;88.39
2036;BME280;23642;42.658;23.350;2023-03-16T10:19:01;49706.47;;;-146.31;87.65
2036;BME280;23642;42.658;23.350;2023-03-16T10:21:36;49764.22;;;-146.31;86.52
2036;BME280;23642;42.658;23.350;2023-03-16T10:24:23;49747.72;;;-146.31;86.94
2036;BME280;23642;42.658;23.350;2023-03-16T10:26:54;49735.34;;;-146.31;88.29
2036;BME280;23642;42.658;23.350;2023-03-16T10:29:24;49753.91;;;-146.31;87.48
2036;BME280;23642;42.658;23.350;2023-03-16T10:31:53;49850.81;;;-146.31;86.96
2036;BME280;23642;42.658;23.350;2023-03-16T10:34:21;49842.56;;;-146.31;85.64
2036;BME280;23642;42.658;23.350;2023-03-16T10:36:48;49883.81;;;-146.31;85.42
2036;BME280;23642;42.658;23.350;2023-03-16T10:39:18;49871.44;;;-146.31;85.99
2036;BME280;23642;42.658;23.350;2023-03-16T10:41:54;49879.69;;;-146.31;85.72
2036;BME280;23642;42.658;23.350;2023-03-16T10:44:23;49956.00;;;-146.31;85.62
2036;BME280;23642;42.658;23.350;2023-03-16T10:46:58;49920.94;;;-146.31;85.83
2036;BME280;23642;42.658;23.350;2023-03-16T10:49:27;49906.50;;;-146.31;85.29
2036;BME280;23642;42.658;23.350;2023-03-16T10:51:56;49920.94;;;-146.31;85.39
2036;BME280;23642;42.658;23.350;2023-03-16T10:54:27;49925.06;;;-146.31;85.42
2036;BME280;23642;42.658;23.350;2023-03-16T10:56:56;49999.28;;;-146.31;84.51
2036;BME280;23642;42.658;23.350;2023-03-16T10:59:31;50013.72;;;-146.31;83.58
2036;BME280;23642;42.658;23.350;2023-03-16T11:01:59;50081.78;;;-146.31;83.47
2036;BME280;23642;42.658;23.350;2023-03-16T11:04:30;50189.00;;;-146.31;82.52
2036;BME280;23642;42.658;23.350;2023-03-16T11:06:58;50180.75;;;-146.31;82.43
2036;BME280;23642;42.658;23.350;2023-03-16T11:09:31;50232.31;;;-146.31;81.28
2036;BME280;23642;42.658;23.350;2023-03-16T11:11:59;50263.25;;;-146.31;80.85
2036;BME280;23642;42.658;23.350;2023-03-16T11:14:28;50415.88;;;-146.31;79.55
2036;BME280;23642;42.658;23.350;2023-03-16T11:17:02;50387.00;;;-146.31;81.13
2036;BME280;23642;42.658;23.350;2023-03-16T11:19:32;50469.50;;;-146.31;79.96
2036;BME280;23642;42.658;23.350;2023-03-16T11:22:04;50477.75;;;-146.31;80.87
2036;BME280;23642;42.658;23.350;2023-03-16T11:24:44;50494.25;;;-146.31;80.35
2036;BME280;23642;42.658;23.350;2023-03-16T11:27:19;50473.63;;;-146.31;81.35
2036;BME280;23642;42.658;23.350;2023-03-16T11:29:57;50502.50;;;-146.31;81.84
2036;BME280;23642;42.658;23.350;2023-03-16T11:32:28;50471.56;;;-146.31;81.04
2036;BME280;23642;42.658;23.350;2023-03-16T11:34:56;50510.75;;;-146.31;81.58
2036;BME280;23642;42.658;23.350;2023-03-16T11:37:34;50506.63;;;-146.31;81.08
2036;BME280;23642;42.658;23.350;2023-03-16T11:40:18;50506.63;;;-146.31;81.59
2036;BME280;23642;42.658;23.350;2023-03-16T11:42:54;50574.69;;;-146.31;80.54
2036;BME280;23642;42.658;23.350;2023-03-16T11:45:32;50541.69;;;-146.31;81.10
2036;BME280;23642;42.658;23.350;2023-03-16T11:48:23;50650.97;;;-146.31;80.05
2036;BME280;23642;42.658;23.350;2023-03-16T11:51:04;50564.38;;;-146.31;80.68
2036;BME280;23642;42.658;23.350;2023-03-16T11:53:48;50589.13;;;-146.31;81.07
2036;BME280;23642;42.658;23.350;2023-03-16T11:56:32;50620.06;;;-146.31;81.28
2036;BME280;23642;42.658;23.350;2023-03-16T11:59:07;50560.25;;;-146.31;81.06
2036;BME280;23642;42.658;23.350;2023-03-16T12:01:50;50618.00;;;-146.31;80.70
2036;BME280;23642;42.658;23.350;2023-03-16T12:04:43;50630.38;;;-146.31;81.38
2036;BME280;23642;42.658;23.350;2023-03-16T12:07:34;50593.25;;;-146.31;82.14
2036;BME280;23642;42.658;23.350;2023-03-16T12:10:11;50580.88;;;-146.31;81.83
2036;BME280;23642;42.658;23.350;2023-03-16T12:12:54;50552.00;;;-146.31;82.33
2036;BME280;23642;42.658;23.350;2023-03-16T12:15:31;50529.31;;;-146.31;83.76
2036;BME280;23642;42.658;23.350;2023-03-16T12:18:01;50523.13;;;-146.31;83.42
2036;BME280;23642;42.658;23.350;2023-03-16T12:20:39;50500.44;;;-146.31;83.39
2036;BME280;23642;42.658;23.350;2023-03-16T12:23:12;50508.69;;;-146.31;84.02
2036;BME280;23642;42.658;23.350;2023-03-16T12:25:43;50535.50;;;-146.31;83.42
2036;BME280;23642;42.658;23.350;2023-03-16T12:28:20;50527.25;;;-146.31;83.16
2036;BME280;23642;42.658;23.350;2023-03-16T12:31:09;50560.25;;;-146.31;82.92
2036;BME280;23642;42.658;23.350;2023-03-16T12:34:03;50554.06;;;-146.31;82.89
2036;BME280;23642;42.658;23.350;2023-03-16T12:36:57;50535.50;;;-146.31;83.06
2036;BME280;23642;42.658;23.350;2023-03-16T12:39:38;50510.75;;;-146.31;83.54
2036;BME280;23642;42.658;23.350;2023-03-16T12:42:25;50510.75;;;-146.31;83.64
2036;BME280;23642;42.658;23.350;2023-03-16T12:45:02;50465.38;;;-146.31;84.44
2036;BME280;23642;42.658;23.350;2023-03-16T12:47:32;50492.19;;;-146.31;84.29
2036;BME280;23642;42.658;23.350;2023-03-16T12:50:04;50457.13;;;-146.31;84.43
2036;BME280;23642;42.658;23.350;2023-03-16T12:52:41;50450.94;;;-146.31;85.36
2036;BME280;23642;42.658;23.350;2023-03-16T12:55:13;50387.00;;;-146.31;87.24